createdAt,value
2019-02-08T00:02:14.416Z,2.60
2019-02-08T00:04:44.565Z,2.60
2019-02-08T00:07:15.120Z,2.50
2019-02-08T00:09:45.255Z,2.40
2019-02-08T00:12:15.325Z,2.40
2019-02-08T00:14:45.624Z,2.50
2019-02-08T00:17:15.733Z,2.60
2019-02-08T00:19:46.683Z,2.60
2019-02-08T00:22:17.042Z,2.60
2019-02-08T00:24:47.394Z,2.60
2019-02-08T00:27:17.847Z,2.50
2019-02-08T00:29:48.412Z,2.50
2019-02-08T00:32:18.370Z,2.40
2019-02-08T00:34:49.298Z,2.50
2019-02-08T00:37:19.339Z,2.50
2019-02-08T00:39:49.599Z,2.70
2019-02-08T00:42:19.782Z,2.80
2019-02-08T00:44:50.197Z,2.90
2019-02-08T00:47:20.434Z,2.90
2019-02-08T00:49:51.582Z,2.90
2019-02-08T00:52:21.956Z,2.90
2019-02-08T00:54:52.601Z,2.90
2019-02-08T00:57:22.639Z,2.80
2019-02-08T00:59:52.684Z,2.80
2019-02-08T01:02:22.928Z,2.90
2019-02-08T01:04:53.440Z,2.90
2019-02-08T01:07:23.546Z,3.00
2019-02-08T01:09:53.945Z,3.00
2019-02-08T01:12:24.399Z,3.00
2019-02-08T01:14:55.193Z,3.10
2019-02-08T01:17:25.205Z,3.10
2019-02-08T01:19:55.835Z,3.10
2019-02-08T01:22:25.961Z,3.10
2019-02-08T01:24:56.038Z,3.00
2019-02-08T01:27:26.159Z,3.00
2019-02-08T01:29:56.555Z,2.90
2019-02-08T01:32:26.796Z,2.80
2019-02-08T01:34:56.779Z,2.70
2019-02-08T01:37:26.890Z,2.70
2019-02-08T01:39:59.938Z,2.60
2019-02-08T01:42:29.949Z,2.50
2019-02-08T01:45:00.240Z,2.50
2019-02-08T01:47:30.365Z,2.50
2019-02-08T01:50:00.450Z,2.60
2019-02-08T01:52:30.503Z,2.60
2019-02-08T01:55:00.504Z,2.60
2019-02-08T01:57:30.435Z,2.60
2019-02-08T02:00:00.346Z,2.60
2019-02-08T02:02:30.323Z,2.70
2019-02-08T02:05:00.477Z,2.70
2019-02-08T02:07:30.784Z,2.80
2019-02-08T02:10:01.158Z,2.90
2019-02-08T02:12:31.371Z,2.90
2019-02-08T02:15:01.459Z,2.90
2019-02-08T02:17:31.461Z,2.80
2019-02-08T02:20:02.733Z,2.80
2019-02-08T02:22:33.064Z,2.70
2019-02-08T02:25:03.146Z,2.70
2019-02-08T02:27:33.506Z,2.60
2019-02-08T02:30:05.542Z,2.60
2019-02-08T02:32:35.801Z,2.60
2019-02-08T02:35:06.787Z,2.70
2019-02-08T02:37:37.453Z,2.70
2019-02-08T02:40:09.922Z,2.70
2019-02-08T02:42:39.937Z,2.70
2019-02-08T02:45:16.450Z,2.70
2019-02-08T02:47:46.765Z,2.70
2019-02-08T02:50:17.361Z,2.60
2019-02-08T02:52:47.488Z,2.60
2019-02-08T02:55:36.952Z,2.60
2019-02-08T02:58:07.117Z,2.60
2019-02-08T03:00:40.442Z,2.70
2019-02-08T03:03:11.282Z,2.70
2019-02-08T03:05:42.846Z,2.80
2019-02-08T03:08:15.893Z,2.90
2019-02-08T03:10:46.319Z,3.00
2019-02-08T03:13:16.551Z,3.00
2019-02-08T03:15:46.567Z,3.00
2019-02-08T03:18:16.546Z,3.10
2019-02-08T03:20:47.088Z,3.00
2019-02-08T03:23:17.459Z,3.10
2019-02-08T03:25:47.560Z,3.10
2019-02-08T03:28:17.559Z,3.10
2019-02-08T03:30:53.084Z,3.10
2019-02-08T03:33:23.189Z,3.10
2019-02-08T03:35:53.310Z,3.20
2019-02-08T03:38:23.457Z,3.30
2019-02-08T03:40:53.610Z,3.40
2019-02-08T03:43:23.708Z,3.40
2019-02-08T03:45:54.325Z,3.40
2019-02-08T03:48:24.601Z,3.40
2019-02-08T03:50:54.685Z,3.40
2019-02-08T03:53:25.028Z,3.40
2019-02-08T03:55:58.511Z,3.40
2019-02-08T03:58:26.895Z,3.40
2019-02-08T04:01:15.760Z,3.40
2019-02-08T04:03:45.862Z,3.50
2019-02-08T04:06:16.379Z,3.50
2019-02-08T04:08:46.441Z,3.60
2019-02-08T04:11:16.959Z,3.60
2019-02-08T04:13:47.203Z,3.60
2019-02-08T04:16:17.664Z,3.70
2019-02-08T04:18:48.021Z,3.60
2019-02-08T04:21:18.054Z,3.60
2019-02-08T04:23:48.161Z,3.60
2019-02-08T04:26:18.228Z,3.60
2019-02-08T04:28:48.562Z,3.60
2019-02-08T04:31:18.831Z,3.70
2019-02-08T04:33:48.873Z,3.70
2019-02-08T04:36:19.223Z,3.70
2019-02-08T04:38:49.352Z,3.80
2019-02-08T04:41:19.379Z,3.70
2019-02-08T04:43:50.996Z,3.70
2019-02-08T04:46:21.513Z,3.70
2019-02-08T04:48:51.564Z,3.80
2019-02-08T04:51:21.615Z,3.80
2019-02-08T04:53:51.793Z,3.80
2019-02-08T04:56:21.735Z,3.90
2019-02-08T04:58:51.832Z,3.90
2019-02-08T05:01:21.940Z,3.90
2019-02-08T05:03:52.063Z,3.90
2019-02-08T05:06:22.018Z,3.90
2019-02-08T05:08:52.087Z,4.00
2019-02-08T05:11:22.019Z,4.00
2019-02-08T05:13:52.343Z,3.90
2019-02-08T05:16:22.329Z,3.90
2019-02-08T05:18:52.663Z,3.90
2019-02-08T05:21:22.740Z,3.90
2019-02-08T05:23:53.163Z,3.90
2019-02-08T05:26:23.226Z,3.90
2019-02-08T05:28:54.434Z,3.80
2019-02-08T05:31:24.556Z,3.80
2019-02-08T05:33:54.891Z,3.70
2019-02-08T05:36:24.777Z,3.50
2019-02-08T05:38:55.122Z,3.50
2019-02-08T05:41:25.166Z,3.40
2019-02-08T05:43:55.241Z,3.40
2019-02-08T05:46:25.600Z,3.40
2019-02-08T05:48:56.641Z,3.30
2019-02-08T05:51:26.810Z,3.30
2019-02-08T05:53:56.803Z,3.30
2019-02-08T05:56:26.761Z,3.30
2019-02-08T05:58:57.106Z,3.30
2019-02-08T06:01:27.129Z,3.40
2019-02-08T06:03:57.199Z,3.50
2019-02-08T06:06:27.153Z,3.50
2019-02-08T06:08:57.122Z,3.60
2019-02-08T06:11:27.088Z,3.70
2019-02-08T06:13:57.948Z,3.70
2019-02-08T06:16:28.655Z,3.80
2019-02-08T06:18:58.594Z,3.90
2019-02-08T06:21:29.006Z,3.90
2019-02-08T06:23:58.977Z,3.90
2019-02-08T06:26:29.024Z,4.00
2019-02-08T06:29:00.330Z,4.00
2019-02-08T06:31:30.365Z,4.00
2019-02-08T06:34:00.223Z,4.10
2019-02-08T06:36:30.218Z,4.10
2019-02-08T06:39:00.729Z,4.10
2019-02-08T06:41:30.737Z,4.10
2019-02-08T06:44:01.069Z,4.10
2019-02-08T06:46:31.775Z,4.10
2019-02-08T06:49:01.980Z,4.10
2019-02-08T06:51:33.601Z,4.10
2019-02-08T06:54:03.753Z,4.10
2019-02-08T06:56:55.504Z,4.10
2019-02-08T06:59:30.156Z,4.20
2019-02-08T07:02:34.905Z,4.20
2019-02-08T07:05:22.768Z,4.20
2019-02-08T07:08:09.582Z,4.20
2019-02-08T07:10:50.559Z,4.20
2019-02-08T07:13:38.464Z,4.30
2019-02-08T07:16:37.578Z,4.30
2019-02-08T07:19:34.298Z,4.30
2019-02-08T07:22:19.398Z,4.30
2019-02-08T07:25:09.088Z,4.40
2019-02-08T07:27:51.796Z,4.40
2019-02-08T07:30:47.434Z,4.40
2019-02-08T07:33:42.643Z,4.40
2019-02-08T07:36:45.597Z,4.40
2019-02-08T07:39:25.633Z,4.50
2019-02-08T07:42:15.466Z,4.50
2019-02-08T07:44:54.962Z,4.60
2019-02-08T07:47:42.920Z,4.70
2019-02-08T07:50:34.991Z,4.80
2019-02-08T07:53:25.066Z,4.90
2019-02-08T07:56:10.805Z,5.00
2019-02-08T07:58:58.165Z,5.20
2019-02-08T08:01:46.396Z,5.20
2019-02-08T08:04:30.479Z,5.40
2019-02-08T08:07:09.794Z,5.60
2019-02-08T08:10:08.518Z,5.90
2019-02-08T08:13:00.636Z,6.10
2019-02-08T08:15:48.889Z,6.30
2019-02-08T08:18:29.271Z,6.20
2019-02-08T08:21:19.028Z,6.10
2019-02-08T08:23:59.582Z,5.90
2019-02-08T08:27:10.576Z,5.80
2019-02-08T08:30:02.971Z,5.70
2019-02-08T08:32:55.130Z,5.60
2019-02-08T08:35:53.165Z,5.60
2019-02-08T08:39:22.689Z,5.50
2019-02-08T08:42:36.001Z,5.50
2019-02-08T08:45:59.500Z,5.40
2019-02-08T08:48:46.724Z,5.40
2019-02-08T08:52:09.399Z,5.50
2019-02-08T08:55:12.601Z,5.50
2019-02-08T08:58:27.578Z,5.50
2019-02-08T09:01:20.823Z,5.60
2019-02-08T09:04:24.143Z,5.60
2019-02-08T09:07:37.606Z,5.60
2019-02-08T09:10:43.725Z,5.70
2019-02-08T09:13:45.195Z,5.70
2019-02-08T09:16:56.143Z,5.70
2019-02-08T09:20:02.373Z,5.70
2019-02-08T09:23:09.603Z,5.80
2019-02-08T09:26:07.684Z,5.80
2019-02-08T09:29:04.739Z,5.70
2019-02-08T09:32:11.923Z,5.80
2019-02-08T09:35:28.205Z,5.80
2019-02-08T09:38:25.454Z,5.80
2019-02-08T09:41:29.035Z,5.90
2019-02-08T09:44:37.696Z,5.90
2019-02-08T09:47:58.116Z,5.90
2019-02-08T09:51:08.850Z,5.90
2019-02-08T09:54:22.787Z,5.90
2019-02-08T09:57:51.799Z,5.90
2019-02-08T10:01:02.420Z,5.90
2019-02-08T10:04:26.090Z,6.00
2019-02-08T10:07:36.526Z,6.10
2019-02-08T10:10:32.604Z,6.10
2019-02-08T10:13:39.033Z,6.20
2019-02-08T10:16:52.592Z,6.20
2019-02-08T10:20:06.091Z,6.20
2019-02-08T10:22:58.639Z,6.20
2019-02-08T10:26:05.457Z,6.20
2019-02-08T10:29:26.482Z,6.20
2019-02-08T10:32:53.453Z,6.30
2019-02-08T10:36:03.494Z,6.40
2019-02-08T10:39:21.739Z,6.30
2019-02-08T10:42:28.512Z,6.40
2019-02-08T10:45:34.348Z,6.50
2019-02-08T10:48:38.625Z,6.60
2019-02-08T10:51:48.535Z,6.60
2019-02-08T10:55:11.954Z,6.70
2019-02-08T10:58:34.261Z,6.80
2019-02-08T11:01:47.442Z,6.80
2019-02-08T11:04:56.770Z,6.80
2019-02-08T11:07:55.743Z,6.80
2019-02-08T11:11:00.114Z,6.90
2019-02-08T11:14:09.255Z,6.90
2019-02-08T11:17:26.607Z,7.00
2019-02-08T11:19:57.306Z,7.00
2019-02-08T11:22:27.555Z,7.00
2019-02-08T11:24:57.626Z,7.00
2019-02-08T11:27:27.664Z,7.10
2019-02-08T11:29:58.029Z,7.10
2019-02-08T11:32:42.513Z,7.20
2019-02-08T11:35:00.478Z,7.20
2019-02-08T11:37:30.745Z,7.20
2019-02-08T11:40:01.259Z,7.20
2019-02-08T11:42:31.717Z,7.20
2019-02-08T11:45:01.826Z,7.20
2019-02-08T11:47:33.851Z,7.20
2019-02-08T11:50:05.367Z,7.20
2019-02-08T11:52:35.568Z,7.20
2019-02-08T11:55:06.335Z,7.30
2019-02-08T11:57:36.376Z,7.50
2019-02-08T12:00:09.383Z,7.60
2019-02-08T12:02:40.458Z,7.70
2019-02-08T12:05:31.582Z,7.80
2019-02-08T12:08:01.791Z,7.90
2019-02-08T12:10:33.348Z,8.00
2019-02-08T12:13:03.530Z,8.00
2019-02-08T12:15:33.776Z,8.00
2019-02-08T12:18:03.971Z,8.00
2019-02-08T12:20:34.335Z,8.00
2019-02-08T12:23:04.739Z,8.00
2019-02-08T12:25:35.059Z,8.00
2019-02-08T12:28:05.389Z,8.10
2019-02-08T12:30:38.340Z,8.20
2019-02-08T12:33:09.993Z,8.40
2019-02-08T12:35:40.700Z,8.60
2019-02-08T12:38:13.746Z,8.80
2019-02-08T12:40:44.212Z,9.00
2019-02-08T12:43:14.405Z,9.20
2019-02-08T12:45:44.883Z,9.30
2019-02-08T12:48:14.900Z,9.30
2019-02-08T12:50:45.095Z,9.40
2019-02-08T12:53:15.979Z,9.60
2019-02-08T12:55:46.070Z,9.70
2019-02-08T12:58:16.358Z,9.70
2019-02-08T13:00:46.682Z,9.60
2019-02-08T13:03:17.015Z,9.30
2019-02-08T13:05:47.122Z,9.20
2019-02-08T13:08:17.749Z,9.10
2019-02-08T13:10:47.905Z,9.10
2019-02-08T13:13:18.242Z,9.00
2019-02-08T13:15:48.355Z,9.00
2019-02-08T13:18:24.749Z,9.00
2019-02-08T13:20:54.895Z,9.00
2019-02-08T13:23:25.486Z,9.10
2019-02-08T13:25:59.127Z,9.10
2019-02-08T13:28:29.353Z,9.10
2019-02-08T13:30:59.824Z,9.10
2019-02-08T13:33:30.465Z,9.10
2019-02-08T13:36:01.477Z,9.10
2019-02-08T13:38:32.134Z,9.00
2019-02-08T13:41:02.251Z,9.00
2019-02-08T13:43:32.429Z,8.90
2019-02-08T13:46:02.708Z,8.90
2019-02-08T13:48:32.970Z,8.90
2019-02-08T13:51:03.375Z,8.80
2019-02-08T13:53:33.600Z,8.70
2019-02-08T13:56:03.855Z,8.60
2019-02-08T13:58:34.174Z,8.50
2019-02-08T14:01:05.777Z,8.50
2019-02-08T14:03:35.997Z,8.40
2019-02-08T14:06:06.251Z,8.40
2019-02-08T14:08:43.052Z,8.40
2019-02-08T14:11:14.329Z,8.40
2019-02-08T14:13:44.387Z,8.30
2019-02-08T14:16:14.446Z,8.20
2019-02-08T14:18:44.655Z,8.10
2019-02-08T14:21:14.680Z,8.00
2019-02-08T14:23:44.731Z,8.00
2019-02-08T14:26:19.535Z,8.00
2019-02-08T14:28:49.976Z,8.00
2019-02-08T14:31:20.128Z,8.00
2019-02-08T14:33:50.234Z,8.00
2019-02-08T14:36:20.478Z,7.90
2019-02-08T14:38:50.529Z,7.90
2019-02-08T14:41:20.870Z,7.90
2019-02-08T14:43:51.183Z,7.80
2019-02-08T14:46:21.273Z,7.80
2019-02-08T14:48:51.465Z,7.70
2019-02-08T14:51:21.750Z,7.60
2019-02-08T14:53:52.221Z,7.60
2019-02-08T14:56:22.408Z,7.50
2019-02-08T14:58:52.613Z,7.50
2019-02-08T15:01:23.154Z,7.50
2019-02-08T15:03:54.926Z,7.50
2019-02-08T15:06:25.202Z,7.50
2019-02-08T15:08:55.644Z,7.50
2019-02-08T15:11:25.777Z,7.60
2019-02-08T15:13:55.670Z,7.60
2019-02-08T15:16:25.833Z,7.60
2019-02-08T15:18:56.404Z,7.70
2019-02-08T15:21:26.437Z,7.70
2019-02-08T15:23:56.628Z,7.70
2019-02-08T15:26:26.696Z,7.80
2019-02-08T15:28:56.816Z,7.80
2019-02-08T15:31:26.994Z,7.90
2019-02-08T15:33:57.111Z,7.90
2019-02-08T15:36:27.755Z,8.00
2019-02-08T15:38:57.762Z,8.00
2019-02-08T15:41:28.038Z,8.00
2019-02-08T15:43:59.782Z,8.10
2019-02-08T15:46:30.876Z,8.10
2019-02-08T15:49:01.453Z,8.10
2019-02-08T15:51:32.024Z,8.10
2019-02-08T15:54:02.079Z,8.20
2019-02-08T15:56:32.446Z,8.20
2019-02-08T15:59:02.552Z,8.10
2019-02-08T16:01:32.739Z,8.10
2019-02-08T16:04:02.899Z,8.10
2019-02-08T16:06:33.066Z,8.20
2019-02-08T16:09:04.489Z,8.20
2019-02-08T16:11:34.579Z,8.10
2019-02-08T16:14:04.634Z,8.10
2019-02-08T16:16:34.889Z,8.10
2019-02-08T16:19:05.608Z,8.10
2019-02-08T16:21:36.584Z,8.10
2019-02-08T16:24:07.133Z,8.10
2019-02-08T16:26:37.553Z,8.10
2019-02-08T16:29:07.954Z,8.10
2019-02-08T16:31:38.136Z,8.10
2019-02-08T16:34:08.450Z,8.00
2019-02-08T16:36:38.665Z,8.00
2019-02-08T16:39:11.182Z,8.10
2019-02-08T16:41:41.298Z,8.10
2019-02-08T16:44:11.658Z,8.10
2019-02-08T16:46:41.796Z,8.10
2019-02-08T16:49:11.822Z,8.10
2019-02-08T16:51:41.969Z,8.10
2019-02-08T16:54:12.026Z,8.10
2019-02-08T16:56:42.107Z,8.10
2019-02-08T16:59:12.226Z,8.10
2019-02-08T17:01:42.253Z,8.10
2019-02-08T17:04:12.806Z,8.10
2019-02-08T17:06:42.878Z,8.10
2019-02-08T17:09:14.421Z,8.10
2019-02-08T17:11:44.564Z,8.10
2019-02-08T17:14:14.731Z,8.10
2019-02-08T17:16:44.834Z,8.00
2019-02-08T17:19:16.935Z,7.90
2019-02-08T17:21:47.114Z,7.80
2019-02-08T17:24:17.302Z,7.70
2019-02-08T17:26:47.820Z,7.60
2019-02-08T17:29:17.910Z,7.50
2019-02-08T17:31:48.062Z,7.40
2019-02-08T17:34:18.457Z,7.30
2019-02-08T17:36:48.352Z,7.30
2019-02-08T17:39:18.725Z,7.20
2019-02-08T17:41:49.333Z,7.20
2019-02-08T17:44:19.361Z,7.20
2019-02-08T17:46:49.317Z,7.20
2019-02-08T17:49:19.260Z,7.20
2019-02-08T17:51:50.397Z,7.20
2019-02-08T17:54:25.526Z,7.20
2019-02-08T17:56:52.802Z,7.20
2019-02-08T17:59:23.013Z,7.20
2019-02-08T18:01:53.124Z,7.20
2019-02-08T18:04:23.704Z,7.20
2019-02-08T18:06:54.013Z,7.20
2019-02-08T18:09:23.945Z,7.20
2019-02-08T18:11:54.232Z,7.30
2019-02-08T18:14:24.207Z,7.30
2019-02-08T18:16:54.415Z,7.30
2019-02-08T18:19:24.735Z,7.30
2019-02-08T18:21:54.965Z,7.40
2019-02-08T18:24:25.050Z,7.50
2019-02-08T18:26:55.071Z,7.40
2019-02-08T18:29:25.257Z,7.50
2019-02-08T18:31:55.419Z,7.50
2019-02-08T18:34:25.792Z,7.50
2019-02-08T18:36:55.786Z,7.50
2019-02-08T18:39:26.029Z,7.50
2019-02-08T18:41:55.938Z,7.50
2019-02-08T18:44:25.853Z,7.50
2019-02-08T18:46:55.906Z,7.50
2019-02-08T18:49:26.002Z,7.40
2019-02-08T18:51:56.102Z,7.40
2019-02-08T18:54:26.514Z,7.40
2019-02-08T18:56:56.887Z,7.30
2019-02-08T18:59:27.201Z,7.30
2019-02-08T19:01:57.169Z,7.30
2019-02-08T19:04:28.645Z,7.30
2019-02-08T19:06:58.784Z,7.20
2019-02-08T19:09:28.703Z,7.20
2019-02-08T19:11:58.988Z,7.20
2019-02-08T19:14:28.954Z,7.20
2019-02-08T19:16:59.532Z,7.20
2019-02-08T19:19:31.304Z,7.20
2019-02-08T19:22:01.482Z,7.20
2019-02-08T19:24:31.520Z,7.10
2019-02-08T19:27:01.471Z,7.20
2019-02-08T19:29:31.923Z,7.20
2019-02-08T19:32:01.966Z,7.20
2019-02-08T19:34:32.187Z,7.20
2019-02-08T19:37:03.053Z,7.20
2019-02-08T19:39:33.272Z,7.20
2019-02-08T19:42:03.600Z,7.20
2019-02-08T19:44:33.932Z,7.20
2019-02-08T19:47:04.019Z,7.20
2019-02-08T19:49:33.996Z,7.30
2019-02-08T19:52:04.104Z,7.30
2019-02-08T19:54:34.377Z,7.30
2019-02-08T19:57:05.460Z,7.30
2019-02-08T19:59:35.604Z,7.30
2019-02-08T20:02:06.354Z,7.30
2019-02-08T20:04:36.887Z,7.30
2019-02-08T20:07:07.159Z,7.30
2019-02-08T20:09:37.140Z,7.30
2019-02-08T20:12:07.404Z,7.30
2019-02-08T20:14:37.703Z,7.30
2019-02-08T20:17:08.430Z,7.30
2019-02-08T20:19:38.684Z,7.40
2019-02-08T20:22:09.411Z,7.30
2019-02-08T20:24:39.351Z,7.40
2019-02-08T20:27:09.489Z,7.40
2019-02-08T20:29:39.818Z,7.50
2019-02-08T20:32:09.871Z,7.50
2019-02-08T20:34:40.074Z,7.60
2019-02-08T20:37:10.179Z,7.60
2019-02-08T20:39:40.559Z,7.60
2019-02-08T20:42:10.682Z,7.70
2019-02-08T20:44:41.253Z,7.60
2019-02-08T20:47:11.573Z,7.60
2019-02-08T20:49:41.740Z,7.70
2019-02-08T20:52:11.886Z,7.70
2019-02-08T20:54:42.287Z,7.70
2019-02-08T20:57:13.021Z,7.60
2019-02-08T20:59:43.056Z,7.60
2019-02-08T21:02:13.203Z,7.60
2019-02-08T21:04:43.252Z,7.60
2019-02-08T21:07:13.523Z,7.60
2019-02-08T21:09:43.654Z,7.60
2019-02-08T21:12:13.840Z,7.60
2019-02-08T21:14:43.925Z,7.60
2019-02-08T21:17:14.741Z,7.50
2019-02-08T21:19:44.634Z,7.50
2019-02-08T21:22:14.636Z,7.50
2019-02-08T21:24:45.016Z,7.60
2019-02-08T21:27:15.390Z,7.60
2019-02-08T21:29:45.405Z,7.60
2019-02-08T21:32:15.560Z,7.60
2019-02-08T21:34:45.572Z,7.60
2019-02-08T21:37:15.933Z,7.60
2019-02-08T21:39:46.022Z,7.60
2019-02-08T21:42:16.131Z,7.60
2019-02-08T21:44:46.243Z,7.60
2019-02-08T21:47:16.588Z,7.70
2019-02-08T21:49:46.643Z,7.70
2019-02-08T21:52:16.786Z,7.70
2019-02-08T21:54:47.410Z,7.70
2019-02-08T21:57:17.706Z,7.70
2019-02-08T21:59:48.244Z,7.70
2019-02-08T22:02:18.804Z,7.70
2019-02-08T22:04:50.767Z,7.70
2019-02-08T22:07:21.029Z,7.70
2019-02-08T22:09:51.254Z,7.70
2019-02-08T22:12:21.153Z,7.70
2019-02-08T22:14:51.836Z,7.70
2019-02-08T22:17:22.467Z,7.60
2019-02-08T22:19:52.503Z,7.60
2019-02-08T22:22:22.769Z,7.60
2019-02-08T22:24:52.806Z,7.60
2019-02-08T22:27:23.318Z,7.60
2019-02-08T22:29:53.362Z,7.60
2019-02-08T22:32:23.690Z,7.60
2019-02-08T22:34:53.735Z,7.60
2019-02-08T22:37:23.960Z,7.60
2019-02-08T22:39:56.349Z,7.70
2019-02-08T22:42:26.642Z,7.70
2019-02-08T22:44:56.576Z,7.70
2019-02-08T22:47:27.160Z,7.70
2019-02-08T22:49:57.341Z,7.70
2019-02-08T22:52:27.429Z,7.70
2019-02-08T22:54:57.574Z,7.70
2019-02-08T22:57:27.538Z,7.70
2019-02-08T22:59:58.370Z,7.60
2019-02-08T23:02:29.644Z,7.60
2019-02-08T23:04:59.539Z,7.70
2019-02-08T23:07:30.029Z,7.60
2019-02-08T23:10:00.262Z,7.60
2019-02-08T23:12:30.354Z,7.60
2019-02-08T23:15:00.627Z,7.60
2019-02-08T23:17:30.719Z,7.60
2019-02-08T23:20:02.582Z,7.60
2019-02-08T23:22:32.874Z,7.60
2019-02-08T23:25:03.205Z,7.60
2019-02-08T23:27:33.026Z,7.60
2019-02-08T23:30:02.956Z,7.60
2019-02-08T23:32:33.747Z,7.50
2019-02-08T23:35:05.010Z,7.60
2019-02-08T23:37:35.119Z,7.60
2019-02-08T23:40:06.090Z,7.60
2019-02-08T23:42:36.718Z,7.60
2019-02-08T23:45:07.875Z,7.60
2019-02-08T23:47:37.927Z,7.60
2019-02-08T23:50:08.729Z,7.50
2019-02-08T23:52:38.691Z,7.50
2019-02-08T23:55:08.892Z,7.50
2019-02-08T23:57:38.827Z,7.50
